sensor_id;sensor_type;location;lat;lon;timestamp;P1;durP1;ratioP1;P2;durP2;ratioP2
16393;SDS011;8306;51.128;4.476;2023-02-28T00:02:19;7.77;;;5.90;;
16393;SDS011;8306;51.128;4.476;2023-02-28T00:04:46;5.40;;;5.00;;
16393;SDS011;8306;51.128;4.476;2023-02-28T00:07:12;5.07;;;4.67;;
16393;SDS011;8306;51.128;4.476;2023-02-28T00:09:39;7.23;;;5.77;;
16393;SDS011;8306;51.128;4.476;2023-02-28T00:12:05;5.53;;;5.07;;
16393;SDS011;8306;51.128;4.476;2023-02-28T00:14:32;5.97;;;5.47;;
16393;SDS011;8306;51.128;4.476;2023-02-28T00:16:58;6.30;;;5.50;;
16393;SDS011;8306;51.128;4.476;2023-02-28T00:19:24;6.00;;;5.30;;
16393;SDS011;8306;51.128;4.476;2023-02-28T00:21:51;5.50;;;5.10;;
16393;SDS011;8306;51.128;4.476;2023-02-28T00:24:17;6.33;;;5.73;;
16393;SDS011;8306;51.128;4.476;2023-02-28T00:26:44;5.13;;;4.73;;
16393;SDS011;8306;51.128;4.476;2023-02-28T00:29:10;6.00;;;5.50;;
16393;SDS011;8306;51.128;4.476;2023-02-28T00:31:37;5.90;;;5.40;;
16393;SDS011;8306;51.128;4.476;2023-02-28T00:34:03;9.83;;;5.80;;
16393;SDS011;8306;51.128;4.476;2023-02-28T00:36:30;5.90;;;5.30;;
16393;SDS011;8306;51.128;4.476;2023-02-28T00:38:56;10.13;;;5.20;;
16393;SDS011;8306;51.128;4.476;2023-02-28T00:41:23;5.60;;;5.00;;
16393;SDS011;8306;51.128;4.476;2023-02-28T00:43:49;6.90;;;6.30;;
16393;SDS011;8306;51.128;4.476;2023-02-28T00:46:16;5.23;;;4.83;;
16393;SDS011;8306;51.128;4.476;2023-02-28T00:48:42;5.90;;;5.50;;
16393;SDS011;8306;51.128;4.476;2023-02-28T00:51:09;5.73;;;5.23;;
16393;SDS011;8306;51.128;4.476;2023-02-28T00:53:35;5.60;;;5.00;;
16393;SDS011;8306;51.128;4.476;2023-02-28T00:56:02;6.93;;;6.33;;
16393;SDS011;8306;51.128;4.476;2023-02-28T00:58:28;6.23;;;5.73;;
16393;SDS011;8306;51.128;4.476;2023-02-28T01:00:55;6.60;;;6.10;;
16393;SDS011;8306;51.128;4.476;2023-02-28T01:03:21;6.90;;;6.30;;
16393;SDS011;8306;51.128;4.476;2023-02-28T01:05:48;6.70;;;6.10;;
16393;SDS011;8306;51.128;4.476;2023-02-28T01:08:14;6.93;;;6.30;;
16393;SDS011;8306;51.128;4.476;2023-02-28T01:10:41;6.27;;;5.67;;
16393;SDS011;8306;51.128;4.476;2023-02-28T01:13:07;7.10;;;6.37;;
16393;SDS011;8306;51.128;4.476;2023-02-28T01:15:34;6.57;;;6.07;;
16393;SDS011;8306;51.128;4.476;2023-02-28T01:18:00;6.70;;;6.10;;
16393;SDS011;8306;51.128;4.476;2023-02-28T01:20:27;7.20;;;6.50;;
16393;SDS011;8306;51.128;4.476;2023-02-28T01:22:53;7.30;;;6.60;;
16393;SDS011;8306;51.128;4.476;2023-02-28T01:25:20;6.80;;;6.10;;
16393;SDS011;8306;51.128;4.476;2023-02-28T01:27:46;6.17;;;5.57;;
16393;SDS011;8306;51.128;4.476;2023-02-28T01:30:13;6.37;;;5.87;;
16393;SDS011;8306;51.128;4.476;2023-02-28T01:32:39;7.03;;;6.40;;
16393;SDS011;8306;51.128;4.476;2023-02-28T01:35:05;6.73;;;5.53;;
16393;SDS011;8306;51.128;4.476;2023-02-28T01:37:32;6.83;;;6.30;;
16393;SDS011;8306;51.128;4.476;2023-02-28T01:39:58;6.00;;;5.40;;
16393;SDS011;8306;51.128;4.476;2023-02-28T01:42:25;6.70;;;6.20;;
16393;SDS011;8306;51.128;4.476;2023-02-28T01:47:31;7.10;;;6.40;;
16393;SDS011;8306;51.128;4.476;2023-02-28T01:49:56;6.70;;;6.20;;
16393;SDS011;8306;51.128;4.476;2023-02-28T01:52:23;6.83;;;6.13;;
16393;SDS011;8306;51.128;4.476;2023-02-28T01:54:51;7.40;;;6.50;;
16393;SDS011;8306;51.128;4.476;2023-02-28T01:57:17;6.87;;;6.37;;
16393;SDS011;8306;51.128;4.476;2023-02-28T01:59:43;7.27;;;6.67;;
16393;SDS011;8306;51.128;4.476;2023-02-28T02:02:12;6.93;;;6.10;;
16393;SDS011;8306;51.128;4.476;2023-02-28T02:07:22;7.43;;;6.73;;
16393;SDS011;8306;51.128;4.476;2023-02-28T02:09:49;6.83;;;6.20;;
16393;SDS011;8306;51.128;4.476;2023-02-28T02:12:27;6.50;;;5.83;;
16393;SDS011;8306;51.128;4.476;2023-02-28T02:17:37;6.20;;;5.70;;
16393;SDS011;8306;51.128;4.476;2023-02-28T02:23:07;7.43;;;6.33;;
16393;SDS011;8306;51.128;4.476;2023-02-28T02:25:34;7.27;;;6.57;;
16393;SDS011;8306;51.128;4.476;2023-02-28T02:31:06;6.80;;;6.17;;
16393;SDS011;8306;51.128;4.476;2023-02-28T02:36:33;7.10;;;6.43;;
16393;SDS011;8306;51.128;4.476;2023-02-28T02:39:07;7.13;;;6.63;;
16393;SDS011;8306;51.128;4.476;2023-02-28T02:44:12;6.33;;;5.83;;
16393;SDS011;8306;51.128;4.476;2023-02-28T02:46:41;9.70;;;6.93;;
16393;SDS011;8306;51.128;4.476;2023-02-28T02:49:09;7.00;;;6.50;;
16393;SDS011;8306;51.128;4.476;2023-02-28T02:51:35;6.70;;;6.10;;
16393;SDS011;8306;51.128;4.476;2023-02-28T02:54:12;6.37;;;5.70;;
16393;SDS011;8306;51.128;4.476;2023-02-28T02:56:37;6.90;;;6.30;;
16393;SDS011;8306;51.128;4.476;2023-02-28T02:59:04;7.30;;;6.70;;
16393;SDS011;8306;51.128;4.476;2023-02-28T03:01:31;7.50;;;6.90;;
16393;SDS011;8306;51.128;4.476;2023-02-28T03:04:03;7.33;;;6.63;;
16393;SDS011;8306;51.128;4.476;2023-02-28T03:06:26;9.03;;;7.43;;
16393;SDS011;8306;51.128;4.476;2023-02-28T03:08:52;7.80;;;7.10;;
16393;SDS011;8306;51.128;4.476;2023-02-28T03:11:19;7.67;;;6.83;;
16393;SDS011;8306;51.128;4.476;2023-02-28T03:24:50;7.80;;;7.00;;
16393;SDS011;8306;51.128;4.476;2023-02-28T03:27:19;8.73;;;7.73;;
16393;SDS011;8306;51.128;4.476;2023-02-28T03:29:50;9.03;;;7.83;;
16393;SDS011;8306;51.128;4.476;2023-02-28T03:32:19;7.87;;;7.07;;
16393;SDS011;8306;51.128;4.476;2023-02-28T03:34:46;9.30;;;8.40;;
16393;SDS011;8306;51.128;4.476;2023-02-28T03:37:18;10.70;;;8.10;;
16393;SDS011;8306;51.128;4.476;2023-02-28T03:39:47;8.87;;;7.47;;
16393;SDS011;8306;51.128;4.476;2023-02-28T03:42:15;9.40;;;8.30;;
16393;SDS011;8306;51.128;4.476;2023-02-28T03:44:51;9.07;;;8.27;;
16393;SDS011;8306;51.128;4.476;2023-02-28T03:47:27;8.60;;;7.50;;
16393;SDS011;8306;51.128;4.476;2023-02-28T03:50:05;7.47;;;6.80;;
16393;SDS011;8306;51.128;4.476;2023-02-28T03:52:40;9.83;;;8.37;;
16393;SDS011;8306;51.128;4.476;2023-02-28T03:55:06;7.70;;;6.90;;
16393;SDS011;8306;51.128;4.476;2023-02-28T04:00:12;7.43;;;6.83;;
16393;SDS011;8306;51.128;4.476;2023-02-28T04:02:46;6.70;;;6.20;;
16393;SDS011;8306;51.128;4.476;2023-02-28T04:05:12;8.20;;;7.40;;
16393;SDS011;8306;51.128;4.476;2023-02-28T04:07:39;6.83;;;6.23;;
16393;SDS011;8306;51.128;4.476;2023-02-28T04:10:05;9.23;;;6.93;;
16393;SDS011;8306;51.128;4.476;2023-02-28T04:12:32;14.40;;;8.23;;
16393;SDS011;8306;51.128;4.476;2023-02-28T04:14:58;7.13;;;6.43;;
16393;SDS011;8306;51.128;4.476;2023-02-28T04:17:25;7.90;;;7.10;;
16393;SDS011;8306;51.128;4.476;2023-02-28T04:19:51;7.93;;;7.17;;
16393;SDS011;8306;51.128;4.476;2023-02-28T04:22:18;7.37;;;6.67;;
16393;SDS011;8306;51.128;4.476;2023-02-28T04:24:44;6.97;;;6.47;;
16393;SDS011;8306;51.128;4.476;2023-02-28T04:27:11;6.27;;;5.73;;
16393;SDS011;8306;51.128;4.476;2023-02-28T04:29:37;6.67;;;6.00;;
16393;SDS011;8306;51.128;4.476;2023-02-28T04:32:03;6.23;;;5.53;;
16393;SDS011;8306;51.128;4.476;2023-02-28T04:34:30;6.60;;;5.90;;
16393;SDS011;8306;51.128;4.476;2023-02-28T04:36:56;6.53;;;5.83;;
16393;SDS011;8306;51.128;4.476;2023-02-28T04:39:23;8.60;;;5.90;;
16393;SDS011;8306;51.128;4.476;2023-02-28T04:41:49;6.33;;;5.47;;
16393;SDS011;8306;51.128;4.476;2023-02-28T04:44:16;6.03;;;5.53;;
16393;SDS011;8306;51.128;4.476;2023-02-28T04:46:43;6.33;;;5.73;;
16393;SDS011;8306;51.128;4.476;2023-02-28T04:49:12;6.07;;;5.57;;
16393;SDS011;8306;51.128;4.476;2023-02-28T04:51:38;6.23;;;5.43;;
16393;SDS011;8306;51.128;4.476;2023-02-28T04:54:05;6.17;;;5.67;;
16393;SDS011;8306;51.128;4.476;2023-02-28T04:56:31;6.00;;;5.40;;
16393;SDS011;8306;51.128;4.476;2023-02-28T04:58:58;5.90;;;5.40;;
16393;SDS011;8306;51.128;4.476;2023-02-28T05:01:25;5.67;;;5.27;;
16393;SDS011;8306;51.128;4.476;2023-02-28T05:03:52;6.17;;;5.57;;
16393;SDS011;8306;51.128;4.476;2023-02-28T05:06:18;6.17;;;5.67;;
16393;SDS011;8306;51.128;4.476;2023-02-28T05:08:44;6.13;;;5.63;;
16393;SDS011;8306;51.128;4.476;2023-02-28T05:11:14;6.43;;;5.83;;
16393;SDS011;8306;51.128;4.476;2023-02-28T05:13:45;6.33;;;5.73;;
16393;SDS011;8306;51.128;4.476;2023-02-28T05:16:12;6.33;;;5.83;;
16393;SDS011;8306;51.128;4.476;2023-02-28T05:18:38;5.23;;;4.80;;
16393;SDS011;8306;51.128;4.476;2023-02-28T05:21:05;5.47;;;5.07;;
16393;SDS011;8306;51.128;4.476;2023-02-28T05:23:31;6.00;;;5.50;;
16393;SDS011;8306;51.128;4.476;2023-02-28T05:25:58;5.97;;;5.47;;
16393;SDS011;8306;51.128;4.476;2023-02-28T05:28:24;6.20;;;5.60;;
16393;SDS011;8306;51.128;4.476;2023-02-28T05:30:50;5.77;;;5.37;;
16393;SDS011;8306;51.128;4.476;2023-02-28T05:33:17;5.50;;;5.10;;
16393;SDS011;8306;51.128;4.476;2023-02-28T05:35:44;6.10;;;5.60;;
16393;SDS011;8306;51.128;4.476;2023-02-28T05:38:10;7.57;;;5.53;;
16393;SDS011;8306;51.128;4.476;2023-02-28T05:40:38;6.00;;;5.40;;
16393;SDS011;8306;51.128;4.476;2023-02-28T05:43:03;10.13;;;5.17;;
16393;SDS011;8306;51.128;4.476;2023-02-28T05:45:29;6.13;;;5.57;;
16393;SDS011;8306;51.128;4.476;2023-02-28T05:47:56;6.30;;;5.80;;
16393;SDS011;8306;51.128;4.476;2023-02-28T05:50:22;5.83;;;5.33;;
16393;SDS011;8306;51.128;4.476;2023-02-28T05:52:50;6.73;;;6.13;;
16393;SDS011;8306;51.128;4.476;2023-02-28T05:55:15;5.90;;;5.50;;
16393;SDS011;8306;51.128;4.476;2023-02-28T05:57:42;5.50;;;5.00;;
16393;SDS011;8306;51.128;4.476;2023-02-28T06:00:08;6.50;;;5.90;;
16393;SDS011;8306;51.128;4.476;2023-02-28T06:02:35;5.37;;;4.87;;
16393;SDS011;8306;51.128;4.476;2023-02-28T06:05:01;6.70;;;5.43;;
16393;SDS011;8306;51.128;4.476;2023-02-28T06:07:28;5.93;;;5.43;;
16393;SDS011;8306;51.128;4.476;2023-02-28T06:09:54;5.70;;;5.20;;
16393;SDS011;8306;51.128;4.476;2023-02-28T06:12:21;5.27;;;4.87;;
16393;SDS011;8306;51.128;4.476;2023-02-28T06:14:47;6.10;;;5.50;;
16393;SDS011;8306;51.128;4.476;2023-02-28T06:17:14;5.80;;;5.30;;
16393;SDS011;8306;51.128;4.476;2023-02-28T06:19:40;5.67;;;5.17;;
16393;SDS011;8306;51.128;4.476;2023-02-28T06:22:07;5.70;;;5.23;;
16393;SDS011;8306;51.128;4.476;2023-02-28T06:24:33;5.70;;;5.20;;
16393;SDS011;8306;51.128;4.476;2023-02-28T06:27:00;8.43;;;5.30;;
16393;SDS011;8306;51.128;4.476;2023-02-28T06:29:26;5.87;;;5.30;;
16393;SDS011;8306;51.128;4.476;2023-02-28T06:31:52;6.07;;;5.60;;
16393;SDS011;8306;51.128;4.476;2023-02-28T06:34:19;5.73;;;5.23;;
16393;SDS011;8306;51.128;4.476;2023-02-28T06:36:45;7.00;;;5.50;;
16393;SDS011;8306;51.128;4.476;2023-02-28T06:39:12;6.23;;;5.73;;
16393;SDS011;8306;51.128;4.476;2023-02-28T06:41:38;5.33;;;4.93;;
16393;SDS011;8306;51.128;4.476;2023-02-28T06:44:05;6.53;;;5.90;;
16393;SDS011;8306;51.128;4.476;2023-02-28T06:46:31;6.10;;;5.37;;
16393;SDS011;8306;51.128;4.476;2023-02-28T06:48:58;5.40;;;5.00;;
16393;SDS011;8306;51.128;4.476;2023-02-28T06:51:24;5.70;;;5.20;;
16393;SDS011;8306;51.128;4.476;2023-02-28T06:53:51;5.90;;;5.30;;
16393;SDS011;8306;51.128;4.476;2023-02-28T06:56:17;5.70;;;5.07;;
16393;SDS011;8306;51.128;4.476;2023-02-28T06:58:47;5.50;;;5.10;;
16393;SDS011;8306;51.128;4.476;2023-02-28T07:01:13;6.57;;;5.10;;
16393;SDS011;8306;51.128;4.476;2023-02-28T07:03:40;6.10;;;4.70;;
16393;SDS011;8306;51.128;4.476;2023-02-28T07:06:06;5.63;;;4.87;;
16393;SDS011;8306;51.128;4.476;2023-02-28T07:08:34;5.80;;;5.30;;
16393;SDS011;8306;51.128;4.476;2023-02-28T07:10:59;6.13;;;5.53;;
16393;SDS011;8306;51.128;4.476;2023-02-28T07:13:26;6.63;;;5.83;;
16393;SDS011;8306;51.128;4.476;2023-02-28T07:15:55;5.80;;;5.30;;
16393;SDS011;8306;51.128;4.476;2023-02-28T07:18:18;5.40;;;4.90;;
16393;SDS011;8306;51.128;4.476;2023-02-28T07:20:45;7.77;;;4.63;;
16393;SDS011;8306;51.128;4.476;2023-02-28T07:23:11;6.47;;;4.87;;
16393;SDS011;8306;51.128;4.476;2023-02-28T07:25:38;5.80;;;4.33;;
16393;SDS011;8306;51.128;4.476;2023-02-28T07:28:04;5.47;;;4.27;;
16393;SDS011;8306;51.128;4.476;2023-02-28T07:30:31;6.73;;;4.10;;
16393;SDS011;8306;51.128;4.476;2023-02-28T07:32:57;3.77;;;3.47;;
16393;SDS011;8306;51.128;4.476;2023-02-28T07:35:24;4.70;;;4.30;;
16393;SDS011;8306;51.128;4.476;2023-02-28T07:37:51;4.60;;;4.20;;
16393;SDS011;8306;51.128;4.476;2023-02-28T07:40:17;4.60;;;4.20;;
16393;SDS011;8306;51.128;4.476;2023-02-28T07:42:44;4.50;;;4.10;;
16393;SDS011;8306;51.128;4.476;2023-02-28T07:45:10;5.47;;;4.60;;
16393;SDS011;8306;51.128;4.476;2023-02-28T07:47:40;5.03;;;4.57;;
16393;SDS011;8306;51.128;4.476;2023-02-28T07:50:06;4.63;;;4.23;;
16393;SDS011;8306;51.128;4.476;2023-02-28T07:52:32;4.70;;;4.30;;
16393;SDS011;8306;51.128;4.476;2023-02-28T07:54:59;4.90;;;4.50;;
16393;SDS011;8306;51.128;4.476;2023-02-28T07:57:25;5.57;;;5.00;;
16393;SDS011;8306;51.128;4.476;2023-02-28T07:59:52;5.23;;;4.73;;
16393;SDS011;8306;51.128;4.476;2023-02-28T08:02:18;4.90;;;4.33;;
16393;SDS011;8306;51.128;4.476;2023-02-28T08:04:45;4.50;;;4.10;;
16393;SDS011;8306;51.128;4.476;2023-02-28T08:07:14;5.13;;;4.47;;
16393;SDS011;8306;51.128;4.476;2023-02-28T08:09:40;6.17;;;4.30;;
16393;SDS011;8306;51.128;4.476;2023-02-28T08:12:07;4.80;;;4.27;;
16393;SDS011;8306;51.128;4.476;2023-02-28T08:14:33;4.37;;;4.07;;
16393;SDS011;8306;51.128;4.476;2023-02-28T08:17:00;5.80;;;4.00;;
16393;SDS011;8306;51.128;4.476;2023-02-28T08:19:26;6.73;;;3.83;;
16393;SDS011;8306;51.128;4.476;2023-02-28T08:21:53;3.67;;;3.27;;
16393;SDS011;8306;51.128;4.476;2023-02-28T08:24:19;3.70;;;3.40;;
16393;SDS011;8306;51.128;4.476;2023-02-28T08:26:46;3.03;;;2.67;;
16393;SDS011;8306;51.128;4.476;2023-02-28T08:29:13;3.10;;;2.80;;
16393;SDS011;8306;51.128;4.476;2023-02-28T08:31:39;3.43;;;2.93;;
16393;SDS011;8306;51.128;4.476;2023-02-28T08:34:06;2.90;;;2.70;;
16393;SDS011;8306;51.128;4.476;2023-02-28T08:36:32;2.93;;;2.70;;
16393;SDS011;8306;51.128;4.476;2023-02-28T08:38:58;3.90;;;2.80;;
16393;SDS011;8306;51.128;4.476;2023-02-28T08:41:25;2.60;;;2.40;;
16393;SDS011;8306;51.128;4.476;2023-02-28T08:43:52;2.77;;;2.53;;
16393;SDS011;8306;51.128;4.476;2023-02-28T08:46:18;3.00;;;2.70;;
16393;SDS011;8306;51.128;4.476;2023-02-28T08:48:44;3.33;;;2.70;;
16393;SDS011;8306;51.128;4.476;2023-02-28T08:51:12;2.47;;;2.20;;
16393;SDS011;8306;51.128;4.476;2023-02-28T08:53:38;2.83;;;2.63;;
16393;SDS011;8306;51.128;4.476;2023-02-28T08:56:08;3.53;;;2.50;;
16393;SDS011;8306;51.128;4.476;2023-02-28T08:58:36;3.00;;;2.80;;
16393;SDS011;8306;51.128;4.476;2023-02-28T09:01:18;3.73;;;2.87;;
16393;SDS011;8306;51.128;4.476;2023-02-28T09:03:41;3.13;;;2.60;;
16393;SDS011;8306;51.128;4.476;2023-02-28T09:06:08;2.87;;;2.67;;
16393;SDS011;8306;51.128;4.476;2023-02-28T09:08:34;3.20;;;2.90;;
16393;SDS011;8306;51.128;4.476;2023-02-28T09:11:00;2.77;;;2.57;;
16393;SDS011;8306;51.128;4.476;2023-02-28T09:13:27;3.10;;;2.90;;
16393;SDS011;8306;51.128;4.476;2023-02-28T09:15:54;3.97;;;2.50;;
16393;SDS011;8306;51.128;4.476;2023-02-28T09:18:20;3.00;;;2.80;;
16393;SDS011;8306;51.128;4.476;2023-02-28T09:20:46;2.30;;;1.90;;
16393;SDS011;8306;51.128;4.476;2023-02-28T09:23:13;1.80;;;1.70;;
16393;SDS011;8306;51.128;4.476;2023-02-28T09:25:46;1.97;;;1.60;;
16393;SDS011;8306;51.128;4.476;2023-02-28T09:28:11;2.03;;;1.87;;
16393;SDS011;8306;51.128;4.476;2023-02-28T09:30:38;3.33;;;2.13;;
16393;SDS011;8306;51.128;4.476;2023-02-28T09:33:04;1.67;;;1.47;;
16393;SDS011;8306;51.128;4.476;2023-02-28T09:35:31;1.40;;;1.30;;
16393;SDS011;8306;51.128;4.476;2023-02-28T09:37:57;1.33;;;1.23;;
16393;SDS011;8306;51.128;4.476;2023-02-28T09:40:24;2.90;;;2.20;;
16393;SDS011;8306;51.128;4.476;2023-02-28T09:42:51;2.10;;;1.87;;
16393;SDS011;8306;51.128;4.476;2023-02-28T09:45:30;1.60;;;1.20;;
16393;SDS011;8306;51.128;4.476;2023-02-28T09:47:56;2.07;;;1.40;;
16393;SDS011;8306;51.128;4.476;2023-02-28T09:50:35;1.70;;;1.50;;
16393;SDS011;8306;51.128;4.476;2023-02-28T09:53:10;1.73;;;1.30;;
16393;SDS011;8306;51.128;4.476;2023-02-28T10:03:55;1.23;;;1.13;;
16393;SDS011;8306;51.128;4.476;2023-02-28T10:06:32;1.47;;;1.23;;
16393;SDS011;8306;51.128;4.476;2023-02-28T10:09:10;1.47;;;1.37;;
16393;SDS011;8306;51.128;4.476;2023-02-28T10:11:35;1.20;;;1.10;;
16393;SDS011;8306;51.128;4.476;2023-02-28T10:16:34;1.13;;;0.90;;
16393;SDS011;8306;51.128;4.476;2023-02-28T10:19:08;1.30;;;1.20;;
16393;SDS011;8306;51.128;4.476;2023-02-28T10:21:59;1.77;;;1.37;;
16393;SDS011;8306;51.128;4.476;2023-02-28T10:26:56;1.20;;;1.10;;
16393;SDS011;8306;51.128;4.476;2023-02-28T10:29:20;2.47;;;1.33;;
16393;SDS011;8306;51.128;4.476;2023-02-28T10:31:47;1.63;;;1.40;;
16393;SDS011;8306;51.128;4.476;2023-02-28T10:34:13;1.63;;;1.40;;
16393;SDS011;8306;51.128;4.476;2023-02-28T10:36:40;4.07;;;1.80;;
16393;SDS011;8306;51.128;4.476;2023-02-28T10:39:33;1.43;;;1.03;;
16393;SDS011;8306;51.128;4.476;2023-02-28T10:41:59;1.50;;;1.40;;
16393;SDS011;8306;51.128;4.476;2023-02-28T10:44:26;1.43;;;1.33;;
16393;SDS011;8306;51.128;4.476;2023-02-28T10:46:52;2.20;;;1.30;;
16393;SDS011;8306;51.128;4.476;2023-02-28T10:49:20;2.00;;;1.07;;
16393;SDS011;8306;51.128;4.476;2023-02-28T10:51:51;1.40;;;1.20;;
16393;SDS011;8306;51.128;4.476;2023-02-28T10:54:22;1.17;;;1.07;;
16393;SDS011;8306;51.128;4.476;2023-02-28T10:57:04;1.17;;;1.10;;
16393;SDS011;8306;51.128;4.476;2023-02-28T11:01:52;0.97;;;0.80;;
16393;SDS011;8306;51.128;4.476;2023-02-28T11:07:00;1.00;;;1.00;;
16393;SDS011;8306;51.128;4.476;2023-02-28T11:09:24;1.13;;;1.03;;
16393;SDS011;8306;51.128;4.476;2023-02-28T11:11:49;1.30;;;1.20;;
16393;SDS011;8306;51.128;4.476;2023-02-28T11:14:18;1.27;;;1.07;;
16393;SDS011;8306;51.128;4.476;2023-02-28T11:16:42;0.90;;;0.90;;
16393;SDS011;8306;51.128;4.476;2023-02-28T11:19:14;0.90;;;0.90;;
16393;SDS011;8306;51.128;4.476;2023-02-28T11:21:36;1.23;;;1.10;;
16393;SDS011;8306;51.128;4.476;2023-02-28T11:24:06;0.90;;;0.90;;
16393;SDS011;8306;51.128;4.476;2023-02-28T11:26:46;1.20;;;1.10;;
16393;SDS011;8306;51.128;4.476;2023-02-28T11:29:19;1.13;;;0.87;;
16393;SDS011;8306;51.128;4.476;2023-02-28T11:32:03;1.00;;;1.00;;
16393;SDS011;8306;51.128;4.476;2023-02-28T11:34:28;1.40;;;1.00;;
16393;SDS011;8306;51.128;4.476;2023-02-28T11:36:55;1.90;;;1.70;;
16393;SDS011;8306;51.128;4.476;2023-02-28T11:39:21;1.63;;;1.47;;
16393;SDS011;8306;51.128;4.476;2023-02-28T11:47:00;2.03;;;1.00;;
16393;SDS011;8306;51.128;4.476;2023-02-28T11:49:32;3.73;;;1.43;;
16393;SDS011;8306;51.128;4.476;2023-02-28T11:52:02;1.40;;;1.30;;
16393;SDS011;8306;51.128;4.476;2023-02-28T11:59:59;1.33;;;1.30;;
16393;SDS011;8306;51.128;4.476;2023-02-28T12:08:03;1.23;;;1.10;;
16393;SDS011;8306;51.128;4.476;2023-02-28T12:10:30;1.90;;;1.03;;
16393;SDS011;8306;51.128;4.476;2023-02-28T12:13:06;1.40;;;1.00;;
16393;SDS011;8306;51.128;4.476;2023-02-28T12:16:00;1.23;;;1.13;;
16393;SDS011;8306;51.128;4.476;2023-02-28T12:18:55;2.03;;;1.30;;
16393;SDS011;8306;51.128;4.476;2023-02-28T12:21:20;1.40;;;1.30;;
16393;SDS011;8306;51.128;4.476;2023-02-28T12:23:44;1.40;;;1.30;;
16393;SDS011;8306;51.128;4.476;2023-02-28T12:31:51;2.30;;;1.10;;
16393;SDS011;8306;51.128;4.476;2023-02-28T12:34:16;1.33;;;1.20;;
16393;SDS011;8306;51.128;4.476;2023-02-28T12:36:44;2.40;;;1.30;;
16393;SDS011;8306;51.128;4.476;2023-02-28T12:39:33;1.67;;;1.57;;
16393;SDS011;8306;51.128;4.476;2023-02-28T12:41:41;1.47;;;1.37;;
16393;SDS011;8306;51.128;4.476;2023-02-28T12:44:49;1.40;;;1.30;;
16393;SDS011;8306;51.128;4.476;2023-02-28T12:46:58;1.40;;;1.30;;
16393;SDS011;8306;51.128;4.476;2023-02-28T12:49:31;1.97;;;1.40;;
16393;SDS011;8306;51.128;4.476;2023-02-28T12:52:04;1.67;;;1.30;;
16393;SDS011;8306;51.128;4.476;2023-02-28T12:57:08;1.77;;;1.30;;
16393;SDS011;8306;51.128;4.476;2023-02-28T12:59:52;1.57;;;1.47;;
16393;SDS011;8306;51.128;4.476;2023-02-28T13:02:28;1.50;;;1.40;;
16393;SDS011;8306;51.128;4.476;2023-02-28T13:05:10;3.13;;;1.50;;
16393;SDS011;8306;51.128;4.476;2023-02-28T13:10:22;1.50;;;1.40;;
16393;SDS011;8306;51.128;4.476;2023-02-28T13:12:49;1.60;;;1.50;;
16393;SDS011;8306;51.128;4.476;2023-02-28T13:15:18;2.30;;;1.67;;
16393;SDS011;8306;51.128;4.476;2023-02-28T13:17:44;1.77;;;1.50;;
16393;SDS011;8306;51.128;4.476;2023-02-28T13:20:17;1.50;;;1.40;;
16393;SDS011;8306;51.128;4.476;2023-02-28T13:22:46;1.40;;;1.30;;
16393;SDS011;8306;51.128;4.476;2023-02-28T13:28:03;2.53;;;1.33;;
16393;SDS011;8306;51.128;4.476;2023-02-28T13:33:21;1.60;;;1.50;;
16393;SDS011;8306;51.128;4.476;2023-02-28T13:38:41;1.77;;;1.67;;
16393;SDS011;8306;51.128;4.476;2023-02-28T13:44:07;1.50;;;1.40;;
16393;SDS011;8306;51.128;4.476;2023-02-28T13:46:34;1.63;;;1.53;;
16393;SDS011;8306;51.128;4.476;2023-02-28T13:52:11;1.40;;;1.30;;
16393;SDS011;8306;51.128;4.476;2023-02-28T14:05:19;1.80;;;1.50;;
16393;SDS011;8306;51.128;4.476;2023-02-28T14:07:49;1.43;;;1.30;;
16393;SDS011;8306;51.128;4.476;2023-02-28T14:10:27;1.60;;;1.50;;
16393;SDS011;8306;51.128;4.476;2023-02-28T14:12:57;1.60;;;1.50;;
16393;SDS011;8306;51.128;4.476;2023-02-28T14:15:40;1.80;;;1.70;;
16393;SDS011;8306;51.128;4.476;2023-02-28T14:18:20;1.73;;;1.63;;
16393;SDS011;8306;51.128;4.476;2023-02-28T14:20:44;2.27;;;1.53;;
16393;SDS011;8306;51.128;4.476;2023-02-28T14:23:14;1.97;;;1.73;;
16393;SDS011;8306;51.128;4.476;2023-02-28T14:25:59;2.30;;;2.10;;
16393;SDS011;8306;51.128;4.476;2023-02-28T14:31:49;1.87;;;1.77;;
16393;SDS011;8306;51.128;4.476;2023-02-28T14:35:16;2.27;;;2.07;;
16393;SDS011;8306;51.128;4.476;2023-02-28T14:37:09;1.97;;;1.77;;
16393;SDS011;8306;51.128;4.476;2023-02-28T14:39:32;2.20;;;1.87;;
16393;SDS011;8306;51.128;4.476;2023-02-28T14:41:59;1.90;;;1.80;;
16393;SDS011;8306;51.128;4.476;2023-02-28T14:44:26;2.20;;;1.93;;
16393;SDS011;8306;51.128;4.476;2023-02-28T14:46:53;2.00;;;1.80;;
16393;SDS011;8306;51.128;4.476;2023-02-28T14:49:23;2.03;;;1.80;;
16393;SDS011;8306;51.128;4.476;2023-02-28T14:51:51;2.37;;;1.97;;
16393;SDS011;8306;51.128;4.476;2023-02-28T14:54:18;2.90;;;2.10;;
16393;SDS011;8306;51.128;4.476;2023-02-28T14:56:43;2.17;;;1.70;;
16393;SDS011;8306;51.128;4.476;2023-02-28T14:59:23;2.10;;;1.70;;
16393;SDS011;8306;51.128;4.476;2023-02-28T15:01:48;2.07;;;1.97;;
16393;SDS011;8306;51.128;4.476;2023-02-28T15:04:18;2.10;;;2.00;;
16393;SDS011;8306;51.128;4.476;2023-02-28T15:06:41;2.70;;;2.00;;
16393;SDS011;8306;51.128;4.476;2023-02-28T15:09:13;3.33;;;1.80;;
16393;SDS011;8306;51.128;4.476;2023-02-28T15:11:39;2.63;;;1.70;;
16393;SDS011;8306;51.128;4.476;2023-02-28T15:14:06;2.57;;;2.10;;
16393;SDS011;8306;51.128;4.476;2023-02-28T15:16:39;2.27;;;1.80;;
16393;SDS011;8306;51.128;4.476;2023-02-28T15:19:05;2.57;;;2.00;;
16393;SDS011;8306;51.128;4.476;2023-02-28T15:21:34;2.00;;;1.90;;
16393;SDS011;8306;51.128;4.476;2023-02-28T15:24:03;2.30;;;2.07;;
16393;SDS011;8306;51.128;4.476;2023-02-28T15:26:37;2.13;;;1.90;;
16393;SDS011;8306;51.128;4.476;2023-02-28T15:29:07;5.10;;;2.20;;
16393;SDS011;8306;51.128;4.476;2023-02-28T15:31:39;2.13;;;1.93;;
16393;SDS011;8306;51.128;4.476;2023-02-28T15:34:02;2.83;;;2.57;;
16393;SDS011;8306;51.128;4.476;2023-02-28T15:36:26;3.20;;;2.80;;
16393;SDS011;8306;51.128;4.476;2023-02-28T15:38:51;2.33;;;2.00;;
16393;SDS011;8306;51.128;4.476;2023-02-28T15:41:22;2.83;;;2.33;;
16393;SDS011;8306;51.128;4.476;2023-02-28T15:43:47;2.20;;;2.00;;
16393;SDS011;8306;51.128;4.476;2023-02-28T15:46:13;5.13;;;2.20;;
16393;SDS011;8306;51.128;4.476;2023-02-28T15:48:43;2.33;;;2.13;;
16393;SDS011;8306;51.128;4.476;2023-02-28T15:51:18;2.30;;;2.20;;
16393;SDS011;8306;51.128;4.476;2023-02-28T15:53:51;2.23;;;1.80;;
16393;SDS011;8306;51.128;4.476;2023-02-28T15:58:55;2.00;;;1.90;;
16393;SDS011;8306;51.128;4.476;2023-02-28T16:01:28;2.07;;;1.90;;
16393;SDS011;8306;51.128;4.476;2023-02-28T16:03:54;2.10;;;1.90;;
16393;SDS011;8306;51.128;4.476;2023-02-28T16:08:58;2.33;;;2.13;;
16393;SDS011;8306;51.128;4.476;2023-02-28T16:11:25;2.67;;;2.03;;
16393;SDS011;8306;51.128;4.476;2023-02-28T16:13:51;2.43;;;2.23;;
16393;SDS011;8306;51.128;4.476;2023-02-28T16:16:18;2.30;;;2.10;;
16393;SDS011;8306;51.128;4.476;2023-02-28T16:18:44;2.13;;;2.03;;
16393;SDS011;8306;51.128;4.476;2023-02-28T16:21:11;1.90;;;1.80;;
16393;SDS011;8306;51.128;4.476;2023-02-28T16:23:37;2.63;;;2.43;;
16393;SDS011;8306;51.128;4.476;2023-02-28T16:26:04;2.00;;;1.90;;
16393;SDS011;8306;51.128;4.476;2023-02-28T16:28:31;4.20;;;2.30;;
16393;SDS011;8306;51.128;4.476;2023-02-28T16:30:57;3.10;;;2.70;;
16393;SDS011;8306;51.128;4.476;2023-02-28T16:33:23;3.13;;;2.90;;
16393;SDS011;8306;51.128;4.476;2023-02-28T16:35:49;2.70;;;2.50;;
16393;SDS011;8306;51.128;4.476;2023-02-28T16:38:16;4.60;;;2.50;;
16393;SDS011;8306;51.128;4.476;2023-02-28T16:40:42;2.37;;;2.17;;
16393;SDS011;8306;51.128;4.476;2023-02-28T16:43:18;2.63;;;2.17;;
16393;SDS011;8306;51.128;4.476;2023-02-28T16:45:41;3.80;;;2.70;;
16393;SDS011;8306;51.128;4.476;2023-02-28T16:48:10;5.50;;;3.63;;
16393;SDS011;8306;51.128;4.476;2023-02-28T16:50:34;5.97;;;4.70;;
16393;SDS011;8306;51.128;4.476;2023-02-28T16:53:00;3.20;;;2.90;;
16393;SDS011;8306;51.128;4.476;2023-02-28T16:55:27;3.03;;;2.83;;
16393;SDS011;8306;51.128;4.476;2023-02-28T16:57:57;3.30;;;3.00;;
16393;SDS011;8306;51.128;4.476;2023-02-28T17:00:26;3.70;;;3.40;;